sensor_id;sensor_type;location;lat;lon;timestamp;P1;durP1;ratioP1;P2;durP2;ratioP2
16870;SDS011;8552;48.120;-1.456;2022-08-14T00:01:37;5.50;;;4.63;;
16870;SDS011;8552;48.120;-1.456;2022-08-14T00:04:03;5.13;;;4.40;;
16870;SDS011;8552;48.120;-1.456;2022-08-14T00:06:29;5.50;;;4.53;;
16870;SDS011;8552;48.120;-1.456;2022-08-14T00:08:55;5.95;;;5.00;;
16870;SDS011;8552;48.120;-1.456;2022-08-14T00:11:21;5.47;;;4.63;;
16870;SDS011;8552;48.120;-1.456;2022-08-14T00:13:46;5.30;;;4.90;;
16870;SDS011;8552;48.120;-1.456;2022-08-14T00:16:12;6.22;;;5.30;;
16870;SDS011;8552;48.120;-1.456;2022-08-14T00:18:39;6.13;;;5.63;;
16870;SDS011;8552;48.120;-1.456;2022-08-14T00:21:05;6.68;;;5.88;;
16870;SDS011;8552;48.120;-1.456;2022-08-14T00:23:32;8.40;;;6.07;;
16870;SDS011;8552;48.120;-1.456;2022-08-14T00:25:57;6.60;;;6.00;;
16870;SDS011;8552;48.120;-1.456;2022-08-14T00:28:23;8.35;;;6.43;;
16870;SDS011;8552;48.120;-1.456;2022-08-14T00:30:51;7.15;;;6.55;;
16870;SDS011;8552;48.120;-1.456;2022-08-14T00:33:21;8.60;;;7.78;;
16870;SDS011;8552;48.120;-1.456;2022-08-14T00:35:48;8.20;;;7.45;;
16870;SDS011;8552;48.120;-1.456;2022-08-14T00:38:15;9.73;;;8.75;;
16870;SDS011;8552;48.120;-1.456;2022-08-14T00:40:42;11.40;;;9.43;;
16870;SDS011;8552;48.120;-1.456;2022-08-14T00:43:08;10.02;;;9.07;;
16870;SDS011;8552;48.120;-1.456;2022-08-14T00:45:35;12.73;;;10.82;;
16870;SDS011;8552;48.120;-1.456;2022-08-14T00:48:01;13.30;;;11.38;;
16870;SDS011;8552;48.120;-1.456;2022-08-14T00:50:28;10.95;;;9.85;;
16870;SDS011;8552;48.120;-1.456;2022-08-14T00:52:54;11.05;;;10.05;;
16870;SDS011;8552;48.120;-1.456;2022-08-14T00:55:20;13.07;;;10.35;;
16870;SDS011;8552;48.120;-1.456;2022-08-14T00:57:47;11.70;;;10.55;;
16870;SDS011;8552;48.120;-1.456;2022-08-14T01:00:32;12.30;;;11.13;;
16870;SDS011;8552;48.120;-1.456;2022-08-14T01:02:59;11.93;;;10.85;;
16870;SDS011;8552;48.120;-1.456;2022-08-14T01:05:25;12.05;;;10.80;;
16870;SDS011;8552;48.120;-1.456;2022-08-14T01:07:52;12.63;;;11.38;;
16870;SDS011;8552;48.120;-1.456;2022-08-14T01:10:21;13.63;;;12.10;;
16870;SDS011;8552;48.120;-1.456;2022-08-14T01:13:12;11.88;;;10.77;;
16870;SDS011;8552;48.120;-1.456;2022-08-14T01:15:44;10.93;;;9.88;;
16870;SDS011;8552;48.120;-1.456;2022-08-14T01:18:12;10.30;;;9.30;;
16870;SDS011;8552;48.120;-1.456;2022-08-14T01:20:57;10.30;;;9.30;;
16870;SDS011;8552;48.120;-1.456;2022-08-14T01:23:39;10.35;;;9.35;;
16870;SDS011;8552;48.120;-1.456;2022-08-14T01:26:08;10.43;;;9.38;;
16870;SDS011;8552;48.120;-1.456;2022-08-14T01:28:34;9.52;;;8.50;;
16870;SDS011;8552;48.120;-1.456;2022-08-14T01:31:03;9.45;;;8.45;;
16870;SDS011;8552;48.120;-1.456;2022-08-14T01:33:36;12.48;;;8.60;;
16870;SDS011;8552;48.120;-1.456;2022-08-14T01:36:04;9.52;;;8.73;;
16870;SDS011;8552;48.120;-1.456;2022-08-14T01:38:31;10.32;;;9.27;;
16870;SDS011;8552;48.120;-1.456;2022-08-14T01:41:02;9.27;;;8.48;;
16870;SDS011;8552;48.120;-1.456;2022-08-14T01:43:30;9.70;;;8.80;;
16870;SDS011;8552;48.120;-1.456;2022-08-14T01:46:03;10.10;;;9.10;;
16870;SDS011;8552;48.120;-1.456;2022-08-14T01:48:35;10.43;;;9.32;;
16870;SDS011;8552;48.120;-1.456;2022-08-14T01:51:03;11.23;;;10.20;;
16870;SDS011;8552;48.120;-1.456;2022-08-14T01:53:32;11.38;;;10.13;;
16870;SDS011;8552;48.120;-1.456;2022-08-14T01:55:58;13.07;;;10.98;;
16870;SDS011;8552;48.120;-1.456;2022-08-14T01:58:28;12.27;;;10.93;;
16870;SDS011;8552;48.120;-1.456;2022-08-14T02:00:54;10.93;;;9.90;;
16870;SDS011;8552;48.120;-1.456;2022-08-14T02:03:30;10.68;;;9.63;;
16870;SDS011;8552;48.120;-1.456;2022-08-14T02:06:03;10.88;;;9.80;;
16870;SDS011;8552;48.120;-1.456;2022-08-14T02:08:29;11.07;;;10.02;;
16870;SDS011;8552;48.120;-1.456;2022-08-14T02:10:57;12.27;;;10.90;;
16870;SDS011;8552;48.120;-1.456;2022-08-14T02:13:43;13.07;;;11.75;;
16870;SDS011;8552;48.120;-1.456;2022-08-14T02:16:10;13.10;;;11.77;;
16870;SDS011;8552;48.120;-1.456;2022-08-14T02:18:36;16.05;;;12.63;;
16870;SDS011;8552;48.120;-1.456;2022-08-14T02:21:03;13.25;;;11.95;;
16870;SDS011;8552;48.120;-1.456;2022-08-14T02:23:30;13.35;;;11.82;;
16870;SDS011;8552;48.120;-1.456;2022-08-14T02:25:56;13.10;;;11.77;;
16870;SDS011;8552;48.120;-1.456;2022-08-14T02:28:24;13.27;;;10.90;;
16870;SDS011;8552;48.120;-1.456;2022-08-14T02:30:52;15.80;;;11.45;;
16870;SDS011;8552;48.120;-1.456;2022-08-14T02:33:18;12.35;;;10.88;;
16870;SDS011;8552;48.120;-1.456;2022-08-14T02:35:45;13.85;;;11.20;;
16870;SDS011;8552;48.120;-1.456;2022-08-14T02:38:10;14.18;;;12.68;;
16870;SDS011;8552;48.120;-1.456;2022-08-14T02:40:36;15.52;;;11.90;;
16870;SDS011;8552;48.120;-1.456;2022-08-14T02:43:03;14.13;;;11.63;;
16870;SDS011;8552;48.120;-1.456;2022-08-14T02:45:29;14.32;;;11.82;;
16870;SDS011;8552;48.120;-1.456;2022-08-14T02:47:59;18.75;;;12.68;;
16870;SDS011;8552;48.120;-1.456;2022-08-14T02:50:27;13.05;;;11.60;;
16870;SDS011;8552;48.120;-1.456;2022-08-14T02:52:53;12.48;;;11.27;;
16870;SDS011;8552;48.120;-1.456;2022-08-14T02:55:19;15.00;;;11.32;;
16870;SDS011;8552;48.120;-1.456;2022-08-14T02:57:45;13.25;;;11.95;;
16870;SDS011;8552;48.120;-1.456;2022-08-14T03:00:15;13.07;;;11.80;;
16870;SDS011;8552;48.120;-1.456;2022-08-14T03:02:41;13.68;;;12.30;;
16870;SDS011;8552;48.120;-1.456;2022-08-14T03:05:07;13.77;;;11.77;;
16870;SDS011;8552;48.120;-1.456;2022-08-14T03:07:33;14.32;;;10.70;;
16870;SDS011;8552;48.120;-1.456;2022-08-14T03:09:59;14.18;;;10.77;;
16870;SDS011;8552;48.120;-1.456;2022-08-14T03:12:25;10.60;;;9.45;;
16870;SDS011;8552;48.120;-1.456;2022-08-14T03:14:51;12.10;;;9.10;;
16870;SDS011;8552;48.120;-1.456;2022-08-14T03:17:17;10.93;;;9.50;;
16870;SDS011;8552;48.120;-1.456;2022-08-14T03:19:43;10.32;;;9.32;;
16870;SDS011;8552;48.120;-1.456;2022-08-14T03:22:09;12.35;;;10.38;;
16870;SDS011;8552;48.120;-1.456;2022-08-14T03:24:35;15.82;;;11.32;;
16870;SDS011;8552;48.120;-1.456;2022-08-14T03:27:01;13.20;;;11.90;;
16870;SDS011;8552;48.120;-1.456;2022-08-14T03:29:27;14.88;;;11.18;;
16870;SDS011;8552;48.120;-1.456;2022-08-14T03:31:55;15.40;;;11.77;;
16870;SDS011;8552;48.120;-1.456;2022-08-14T03:34:23;14.98;;;11.30;;
16870;SDS011;8552;48.120;-1.456;2022-08-14T03:36:50;12.57;;;10.93;;
16870;SDS011;8552;48.120;-1.456;2022-08-14T03:39:19;13.40;;;9.65;;
16870;SDS011;8552;48.120;-1.456;2022-08-14T03:41:46;10.43;;;9.13;;
16870;SDS011;8552;48.120;-1.456;2022-08-14T03:44:13;11.60;;;8.85;;
16870;SDS011;8552;48.120;-1.456;2022-08-14T03:46:39;11.68;;;8.82;;
16870;SDS011;8552;48.120;-1.456;2022-08-14T03:49:07;10.43;;;8.18;;
16870;SDS011;8552;48.120;-1.456;2022-08-14T03:51:33;10.25;;;7.88;;
16870;SDS011;8552;48.120;-1.456;2022-08-14T03:54:04;10.40;;;7.90;;
16870;SDS011;8552;48.120;-1.456;2022-08-14T03:56:36;10.85;;;7.75;;
16870;SDS011;8552;48.120;-1.456;2022-08-14T03:59:05;8.57;;;7.65;;
16870;SDS011;8552;48.120;-1.456;2022-08-14T04:01:35;9.50;;;7.65;;
16870;SDS011;8552;48.120;-1.456;2022-08-14T04:04:04;10.75;;;7.72;;
16870;SDS011;8552;48.120;-1.456;2022-08-14T04:06:33;13.18;;;8.38;;
16870;SDS011;8552;48.120;-1.456;2022-08-14T04:09:03;12.50;;;9.82;;
16870;SDS011;8552;48.120;-1.456;2022-08-14T04:11:31;12.40;;;9.43;;
16870;SDS011;8552;48.120;-1.456;2022-08-14T04:13:57;11.18;;;9.60;;
16870;SDS011;8552;48.120;-1.456;2022-08-14T04:16:22;13.45;;;9.38;;
16870;SDS011;8552;48.120;-1.456;2022-08-14T04:18:50;11.57;;;9.90;;
16870;SDS011;8552;48.120;-1.456;2022-08-14T04:21:21;12.38;;;10.23;;
16870;SDS011;8552;48.120;-1.456;2022-08-14T04:23:49;13.45;;;9.85;;
16870;SDS011;8552;48.120;-1.456;2022-08-14T04:26:17;11.57;;;10.43;;
16870;SDS011;8552;48.120;-1.456;2022-08-14T04:28:46;13.75;;;9.75;;
16870;SDS011;8552;48.120;-1.456;2022-08-14T04:31:13;11.18;;;8.82;;
16870;SDS011;8552;48.120;-1.456;2022-08-14T04:33:40;10.35;;;9.25;;
16870;SDS011;8552;48.120;-1.456;2022-08-14T04:36:06;16.33;;;11.00;;
16870;SDS011;8552;48.120;-1.456;2022-08-14T04:38:32;11.50;;;10.30;;
16870;SDS011;8552;48.120;-1.456;2022-08-14T04:41:16;14.88;;;10.88;;
16870;SDS011;8552;48.120;-1.456;2022-08-14T04:44:01;14.85;;;10.68;;
16870;SDS011;8552;48.120;-1.456;2022-08-14T04:46:28;11.60;;;9.95;;
16870;SDS011;8552;48.120;-1.456;2022-08-14T04:48:54;11.45;;;10.05;;
16870;SDS011;8552;48.120;-1.456;2022-08-14T04:51:21;13.60;;;9.73;;
16870;SDS011;8552;48.120;-1.456;2022-08-14T04:53:51;10.80;;;9.70;;
16870;SDS011;8552;48.120;-1.456;2022-08-14T04:56:18;13.57;;;9.38;;
16870;SDS011;8552;48.120;-1.456;2022-08-14T04:58:47;10.77;;;8.93;;
16870;SDS011;8552;48.120;-1.456;2022-08-14T05:01:14;14.40;;;10.05;;
16870;SDS011;8552;48.120;-1.456;2022-08-14T05:03:40;14.57;;;11.15;;
16870;SDS011;8552;48.120;-1.456;2022-08-14T05:06:07;12.85;;;11.45;;
16870;SDS011;8552;48.120;-1.456;2022-08-14T05:08:35;13.82;;;12.52;;
16870;SDS011;8552;48.120;-1.456;2022-08-14T05:11:02;16.00;;;12.73;;
16870;SDS011;8552;48.120;-1.456;2022-08-14T05:13:30;16.05;;;12.98;;
16870;SDS011;8552;48.120;-1.456;2022-08-14T05:15:57;13.13;;;11.82;;
16870;SDS011;8552;48.120;-1.456;2022-08-14T05:18:35;14.65;;;13.13;;
16870;SDS011;8552;48.120;-1.456;2022-08-14T05:21:05;16.73;;;12.82;;
16870;SDS011;8552;48.120;-1.456;2022-08-14T05:23:34;15.52;;;13.60;;
16870;SDS011;8552;48.120;-1.456;2022-08-14T05:26:02;15.10;;;13.52;;
16870;SDS011;8552;48.120;-1.456;2022-08-14T05:28:33;15.35;;;13.80;;
16870;SDS011;8552;48.120;-1.456;2022-08-14T05:31:01;17.10;;;15.27;;
16870;SDS011;8552;48.120;-1.456;2022-08-14T05:33:31;17.33;;;14.63;;
16870;SDS011;8552;48.120;-1.456;2022-08-14T05:35:59;15.52;;;14.00;;
16870;SDS011;8552;48.120;-1.456;2022-08-14T05:38:27;15.27;;;13.77;;
16870;SDS011;8552;48.120;-1.456;2022-08-14T05:41:05;14.43;;;12.98;;
16870;SDS011;8552;48.120;-1.456;2022-08-14T05:43:37;14.98;;;12.27;;
16870;SDS011;8552;48.120;-1.456;2022-08-14T05:46:04;13.90;;;12.02;;
16870;SDS011;8552;48.120;-1.456;2022-08-14T05:48:30;12.60;;;11.32;;
16870;SDS011;8552;48.120;-1.456;2022-08-14T05:50:56;13.25;;;11.52;;
16870;SDS011;8552;48.120;-1.456;2022-08-14T05:53:23;13.93;;;11.40;;
16870;SDS011;8552;48.120;-1.456;2022-08-14T05:55:50;13.73;;;12.07;;
16870;SDS011;8552;48.120;-1.456;2022-08-14T05:58:17;11.82;;;10.73;;
16870;SDS011;8552;48.120;-1.456;2022-08-14T06:00:46;13.43;;;10.90;;
16870;SDS011;8552;48.120;-1.456;2022-08-14T06:03:17;14.82;;;11.02;;
16870;SDS011;8552;48.120;-1.456;2022-08-14T06:05:46;13.38;;;10.48;;
16870;SDS011;8552;48.120;-1.456;2022-08-14T06:08:17;12.35;;;10.93;;
16870;SDS011;8552;48.120;-1.456;2022-08-14T06:10:46;11.82;;;10.63;;
16870;SDS011;8552;48.120;-1.456;2022-08-14T06:13:12;12.88;;;11.52;;
16870;SDS011;8552;48.120;-1.456;2022-08-14T06:15:39;11.05;;;9.90;;
16870;SDS011;8552;48.120;-1.456;2022-08-14T06:18:05;11.05;;;9.95;;
16870;SDS011;8552;48.120;-1.456;2022-08-14T06:20:32;10.93;;;9.82;;
16870;SDS011;8552;48.120;-1.456;2022-08-14T06:22:58;12.93;;;10.32;;
16870;SDS011;8552;48.120;-1.456;2022-08-14T06:25:24;11.70;;;10.55;;
16870;SDS011;8552;48.120;-1.456;2022-08-14T06:27:50;12.40;;;10.98;;
16870;SDS011;8552;48.120;-1.456;2022-08-14T06:30:17;12.85;;;10.07;;
16870;SDS011;8552;48.120;-1.456;2022-08-14T06:32:44;11.68;;;10.38;;
16870;SDS011;8552;48.120;-1.456;2022-08-14T06:35:11;12.18;;;10.85;;
16870;SDS011;8552;48.120;-1.456;2022-08-14T06:37:53;11.90;;;10.65;;
16870;SDS011;8552;48.120;-1.456;2022-08-14T06:40:28;12.70;;;11.43;;
16870;SDS011;8552;48.120;-1.456;2022-08-14T06:42:58;14.52;;;11.50;;
16870;SDS011;8552;48.120;-1.456;2022-08-14T06:45:28;13.73;;;11.65;;
16870;SDS011;8552;48.120;-1.456;2022-08-14T06:47:58;12.90;;;11.57;;
16870;SDS011;8552;48.120;-1.456;2022-08-14T06:50:25;13.60;;;12.18;;
16870;SDS011;8552;48.120;-1.456;2022-08-14T06:52:51;14.05;;;12.20;;
16870;SDS011;8552;48.120;-1.456;2022-08-14T06:55:17;13.18;;;11.98;;
16870;SDS011;8552;48.120;-1.456;2022-08-14T06:57:47;15.00;;;12.20;;
16870;SDS011;8552;48.120;-1.456;2022-08-14T07:00:16;13.10;;;11.60;;
16870;SDS011;8552;48.120;-1.456;2022-08-14T07:02:43;12.85;;;11.55;;
16870;SDS011;8552;48.120;-1.456;2022-08-14T07:05:28;14.65;;;11.95;;
16870;SDS011;8552;48.120;-1.456;2022-08-14T07:08:13;12.82;;;11.55;;
16870;SDS011;8552;48.120;-1.456;2022-08-14T07:10:48;13.52;;;11.80;;
16870;SDS011;8552;48.120;-1.456;2022-08-14T07:13:15;13.48;;;12.07;;
16870;SDS011;8552;48.120;-1.456;2022-08-14T07:15:45;13.15;;;11.90;;
16870;SDS011;8552;48.120;-1.456;2022-08-14T07:18:17;14.30;;;11.52;;
16870;SDS011;8552;48.120;-1.456;2022-08-14T07:20:50;13.18;;;11.77;;
16870;SDS011;8552;48.120;-1.456;2022-08-14T07:23:17;14.10;;;12.27;;
16870;SDS011;8552;48.120;-1.456;2022-08-14T07:25:43;14.63;;;12.82;;
16870;SDS011;8552;48.120;-1.456;2022-08-14T07:28:17;15.02;;;13.52;;
16870;SDS011;8552;48.120;-1.456;2022-08-14T07:30:47;13.95;;;12.40;;
16870;SDS011;8552;48.120;-1.456;2022-08-14T07:33:14;15.20;;;13.65;;
16870;SDS011;8552;48.120;-1.456;2022-08-14T07:35:40;14.70;;;12.75;;
16870;SDS011;8552;48.120;-1.456;2022-08-14T07:38:06;16.00;;;13.68;;
16870;SDS011;8552;48.120;-1.456;2022-08-14T07:40:32;16.80;;;13.52;;
16870;SDS011;8552;48.120;-1.456;2022-08-14T07:42:59;14.40;;;12.88;;
16870;SDS011;8552;48.120;-1.456;2022-08-14T07:45:25;15.50;;;14.00;;
16870;SDS011;8552;48.120;-1.456;2022-08-14T07:47:51;14.10;;;12.73;;
16870;SDS011;8552;48.120;-1.456;2022-08-14T07:50:17;17.10;;;13.70;;
16870;SDS011;8552;48.120;-1.456;2022-08-14T07:52:45;14.05;;;12.63;;
16870;SDS011;8552;48.120;-1.456;2022-08-14T07:55:12;15.75;;;13.55;;
16870;SDS011;8552;48.120;-1.456;2022-08-14T07:57:40;15.13;;;12.48;;
16870;SDS011;8552;48.120;-1.456;2022-08-14T08:00:08;14.27;;;12.25;;
16870;SDS011;8552;48.120;-1.456;2022-08-14T08:02:40;15.50;;;13.43;;
16870;SDS011;8552;48.120;-1.456;2022-08-14T08:05:12;16.55;;;12.68;;
16870;SDS011;8552;48.120;-1.456;2022-08-14T08:07:39;13.70;;;12.25;;
16870;SDS011;8552;48.120;-1.456;2022-08-14T08:13:14;16.40;;;13.25;;
16870;SDS011;8552;48.120;-1.456;2022-08-14T08:15:43;17.73;;;13.82;;
16870;SDS011;8552;48.120;-1.456;2022-08-14T08:18:11;15.25;;;13.57;;
16870;SDS011;8552;48.120;-1.456;2022-08-14T08:20:42;14.73;;;13.30;;
16870;SDS011;8552;48.120;-1.456;2022-08-14T08:23:11;14.52;;;13.02;;
16870;SDS011;8552;48.120;-1.456;2022-08-14T08:25:38;15.75;;;13.57;;
16870;SDS011;8552;48.120;-1.456;2022-08-14T08:28:06;15.45;;;13.85;;
16870;SDS011;8552;48.120;-1.456;2022-08-14T08:30:36;16.23;;;14.18;;
16870;SDS011;8552;48.120;-1.456;2022-08-14T08:33:03;15.18;;;13.43;;
16870;SDS011;8552;48.120;-1.456;2022-08-14T08:35:31;18.67;;;13.32;;
16870;SDS011;8552;48.120;-1.456;2022-08-14T08:38:03;16.60;;;13.70;;
16870;SDS011;8552;48.120;-1.456;2022-08-14T08:40:32;17.98;;;13.70;;
16870;SDS011;8552;48.120;-1.456;2022-08-14T08:43:06;15.52;;;13.52;;
16870;SDS011;8552;48.120;-1.456;2022-08-14T08:45:53;16.55;;;14.85;;
16870;SDS011;8552;48.120;-1.456;2022-08-14T08:48:24;16.80;;;15.10;;
16870;SDS011;8552;48.120;-1.456;2022-08-14T08:50:53;17.83;;;14.80;;
16870;SDS011;8552;48.120;-1.456;2022-08-14T08:53:20;16.40;;;14.70;;
16870;SDS011;8552;48.120;-1.456;2022-08-14T08:55:46;26.77;;;15.50;;
16870;SDS011;8552;48.120;-1.456;2022-08-14T08:58:13;17.67;;;15.88;;
16870;SDS011;8552;48.120;-1.456;2022-08-14T09:00:49;19.08;;;15.63;;
16870;SDS011;8552;48.120;-1.456;2022-08-14T09:03:18;18.08;;;16.17;;
16870;SDS011;8552;48.120;-1.456;2022-08-14T09:05:55;17.65;;;15.68;;
16870;SDS011;8552;48.120;-1.456;2022-08-14T09:08:33;19.02;;;15.73;;
16870;SDS011;8552;48.120;-1.456;2022-08-14T09:11:01;18.17;;;16.00;;
16870;SDS011;8552;48.120;-1.456;2022-08-14T09:13:33;18.33;;;15.70;;
16870;SDS011;8552;48.120;-1.456;2022-08-14T09:15:59;18.30;;;15.50;;
16870;SDS011;8552;48.120;-1.456;2022-08-14T09:18:26;19.63;;;16.02;;
16870;SDS011;8552;48.120;-1.456;2022-08-14T09:20:53;16.83;;;15.07;;
16870;SDS011;8552;48.120;-1.456;2022-08-14T09:23:20;17.48;;;15.38;;
16870;SDS011;8552;48.120;-1.456;2022-08-14T09:25:47;19.17;;;16.15;;
16870;SDS011;8552;48.120;-1.456;2022-08-14T09:28:15;21.10;;;16.33;;
16870;SDS011;8552;48.120;-1.456;2022-08-14T09:30:49;17.90;;;16.00;;
16870;SDS011;8552;48.120;-1.456;2022-08-14T09:33:25;19.77;;;16.50;;
16870;SDS011;8552;48.120;-1.456;2022-08-14T09:38:53;18.63;;;16.02;;
16870;SDS011;8552;48.120;-1.456;2022-08-14T09:41:32;18.35;;;16.48;;
16870;SDS011;8552;48.120;-1.456;2022-08-14T09:47:01;18.55;;;16.73;;
16870;SDS011;8552;48.120;-1.456;2022-08-14T09:49:31;17.23;;;15.45;;
16870;SDS011;8552;48.120;-1.456;2022-08-14T09:52:05;18.73;;;16.70;;
16870;SDS011;8552;48.120;-1.456;2022-08-14T09:54:39;18.10;;;16.30;;
16870;SDS011;8552;48.120;-1.456;2022-08-14T09:57:07;18.58;;;16.55;;
16870;SDS011;8552;48.120;-1.456;2022-08-14T09:59:53;19.45;;;17.20;;
16870;SDS011;8552;48.120;-1.456;2022-08-14T10:02:23;19.58;;;17.50;;
16870;SDS011;8552;48.120;-1.456;2022-08-14T10:05:04;20.77;;;18.40;;
16870;SDS011;8552;48.120;-1.456;2022-08-14T10:07:34;18.98;;;17.08;;
16870;SDS011;8552;48.120;-1.456;2022-08-14T10:10:14;22.95;;;17.17;;
16870;SDS011;8552;48.120;-1.456;2022-08-14T10:12:58;19.63;;;17.70;;
16870;SDS011;8552;48.120;-1.456;2022-08-14T10:15:26;18.33;;;16.45;;
16870;SDS011;8552;48.120;-1.456;2022-08-14T10:20:39;19.10;;;17.23;;
16870;SDS011;8552;48.120;-1.456;2022-08-14T10:23:18;19.50;;;17.58;;
16870;SDS011;8552;48.120;-1.456;2022-08-14T10:25:50;19.65;;;16.92;;
16870;SDS011;8552;48.120;-1.456;2022-08-14T10:28:18;19.55;;;17.50;;
16870;SDS011;8552;48.120;-1.456;2022-08-14T10:30:45;19.25;;;16.77;;
16870;SDS011;8552;48.120;-1.456;2022-08-14T10:35:54;20.48;;;17.02;;
16870;SDS011;8552;48.120;-1.456;2022-08-14T10:38:28;18.65;;;16.70;;
16870;SDS011;8552;48.120;-1.456;2022-08-14T10:41:59;20.65;;;18.50;;
16870;SDS011;8552;48.120;-1.456;2022-08-14T10:44:21;21.60;;;18.88;;
16870;SDS011;8552;48.120;-1.456;2022-08-14T10:46:52;20.23;;;18.00;;
16870;SDS011;8552;48.120;-1.456;2022-08-14T10:49:25;19.42;;;17.38;;
16870;SDS011;8552;48.120;-1.456;2022-08-14T10:51:58;18.92;;;17.02;;
16870;SDS011;8552;48.120;-1.456;2022-08-14T10:54:37;17.95;;;16.10;;
16870;SDS011;8552;48.120;-1.456;2022-08-14T10:57:12;18.45;;;16.52;;
16870;SDS011;8552;48.120;-1.456;2022-08-14T11:02:19;16.95;;;15.18;;
16870;SDS011;8552;48.120;-1.456;2022-08-14T11:05:13;17.40;;;15.60;;
16870;SDS011;8552;48.120;-1.456;2022-08-14T11:10:24;19.05;;;17.10;;
16870;SDS011;8552;48.120;-1.456;2022-08-14T11:13:02;18.65;;;16.65;;
16870;SDS011;8552;48.120;-1.456;2022-08-14T11:15:29;17.27;;;15.48;;
16870;SDS011;8552;48.120;-1.456;2022-08-14T11:17:55;16.02;;;14.48;;
16870;SDS011;8552;48.120;-1.456;2022-08-14T11:20:24;16.13;;;14.30;;
16870;SDS011;8552;48.120;-1.456;2022-08-14T11:22:53;16.50;;;14.60;;
16870;SDS011;8552;48.120;-1.456;2022-08-14T11:25:22;16.75;;;14.75;;
16870;SDS011;8552;48.120;-1.456;2022-08-14T11:27:53;15.70;;;13.88;;
16870;SDS011;8552;48.120;-1.456;2022-08-14T11:30:24;15.10;;;12.82;;
16870;SDS011;8552;48.120;-1.456;2022-08-14T11:32:51;16.00;;;14.27;;
16870;SDS011;8552;48.120;-1.456;2022-08-14T11:35:21;15.75;;;14.00;;
16870;SDS011;8552;48.120;-1.456;2022-08-14T11:37:55;16.02;;;14.40;;
16870;SDS011;8552;48.120;-1.456;2022-08-14T11:40:23;16.13;;;14.52;;
16870;SDS011;8552;48.120;-1.456;2022-08-14T11:42:51;17.63;;;14.82;;
16870;SDS011;8552;48.120;-1.456;2022-08-14T11:45:24;15.15;;;13.65;;
16870;SDS011;8552;48.120;-1.456;2022-08-14T11:47:58;17.25;;;15.20;;
16870;SDS011;8552;48.120;-1.456;2022-08-14T11:50:29;15.45;;;13.85;;
16870;SDS011;8552;48.120;-1.456;2022-08-14T11:52:57;16.38;;;14.75;;
16870;SDS011;8552;48.120;-1.456;2022-08-14T11:55:26;16.42;;;14.68;;
16870;SDS011;8552;48.120;-1.456;2022-08-14T11:58:04;18.42;;;14.30;;
16870;SDS011;8552;48.120;-1.456;2022-08-14T12:00:44;15.85;;;14.07;;
16870;SDS011;8552;48.120;-1.456;2022-08-14T12:03:10;16.00;;;14.30;;
16870;SDS011;8552;48.120;-1.456;2022-08-14T12:05:37;15.13;;;13.52;;
16870;SDS011;8552;48.120;-1.456;2022-08-14T12:08:07;18.15;;;15.55;;
16870;SDS011;8552;48.120;-1.456;2022-08-14T12:10:38;16.35;;;14.50;;
16870;SDS011;8552;48.120;-1.456;2022-08-14T12:13:18;17.48;;;14.95;;
16870;SDS011;8552;48.120;-1.456;2022-08-14T12:15:46;17.35;;;15.50;;
16870;SDS011;8552;48.120;-1.456;2022-08-14T12:18:56;17.00;;;14.95;;
16870;SDS011;8552;48.120;-1.456;2022-08-14T12:21:18;16.98;;;15.07;;
16870;SDS011;8552;48.120;-1.456;2022-08-14T12:23:46;16.15;;;14.45;;
16870;SDS011;8552;48.120;-1.456;2022-08-14T12:26:25;16.95;;;14.90;;
16870;SDS011;8552;48.120;-1.456;2022-08-14T12:29:02;18.20;;;14.93;;
16870;SDS011;8552;48.120;-1.456;2022-08-14T12:31:33;18.73;;;15.65;;
16870;SDS011;8552;48.120;-1.456;2022-08-14T12:34:01;17.00;;;14.50;;
16870;SDS011;8552;48.120;-1.456;2022-08-14T12:36:29;17.88;;;15.20;;
16870;SDS011;8552;48.120;-1.456;2022-08-14T12:38:56;17.00;;;15.25;;
16870;SDS011;8552;48.120;-1.456;2022-08-14T12:41:23;16.23;;;14.52;;
16870;SDS011;8552;48.120;-1.456;2022-08-14T12:46:33;15.73;;;13.93;;
16870;SDS011;8552;48.120;-1.456;2022-08-14T12:49:00;18.33;;;14.05;;
16870;SDS011;8552;48.120;-1.456;2022-08-14T12:51:37;18.90;;;13.70;;
16870;SDS011;8552;48.120;-1.456;2022-08-14T12:54:14;15.55;;;13.68;;
16870;SDS011;8552;48.120;-1.456;2022-08-14T12:56:41;14.38;;;12.77;;
16870;SDS011;8552;48.120;-1.456;2022-08-14T12:59:10;17.50;;;13.50;;
16870;SDS011;8552;48.120;-1.456;2022-08-14T13:01:36;15.18;;;13.45;;
16870;SDS011;8552;48.120;-1.456;2022-08-14T13:04:11;13.18;;;10.73;;
16870;SDS011;8552;48.120;-1.456;2022-08-14T13:06:39;13.48;;;10.55;;
16870;SDS011;8552;48.120;-1.456;2022-08-14T13:09:11;11.95;;;9.57;;
16870;SDS011;8552;48.120;-1.456;2022-08-14T13:11:41;14.52;;;10.40;;
16870;SDS011;8552;48.120;-1.456;2022-08-14T13:14:25;11.95;;;10.05;;
16870;SDS011;8552;48.120;-1.456;2022-08-14T13:16:55;11.40;;;9.38;;
16870;SDS011;8552;48.120;-1.456;2022-08-14T13:19:22;9.32;;;8.20;;
16870;SDS011;8552;48.120;-1.456;2022-08-14T13:21:49;7.95;;;6.75;;
16870;SDS011;8552;48.120;-1.456;2022-08-14T13:24:17;7.95;;;6.07;;
16870;SDS011;8552;48.120;-1.456;2022-08-14T13:26:45;7.13;;;5.82;;
16870;SDS011;8552;48.120;-1.456;2022-08-14T13:29:14;6.13;;;5.40;;
16870;SDS011;8552;48.120;-1.456;2022-08-14T13:31:44;8.00;;;5.90;;
16870;SDS011;8552;48.120;-1.456;2022-08-14T13:34:16;6.68;;;6.07;;
16870;SDS011;8552;48.120;-1.456;2022-08-14T13:36:50;8.27;;;7.03;;
16870;SDS011;8552;48.120;-1.456;2022-08-14T13:39:17;9.95;;;8.85;;
16870;SDS011;8552;48.120;-1.456;2022-08-14T13:41:44;12.02;;;8.85;;
16870;SDS011;8552;48.120;-1.456;2022-08-14T13:44:13;10.40;;;8.63;;
16870;SDS011;8552;48.120;-1.456;2022-08-14T13:46:41;9.40;;;8.43;;
16870;SDS011;8552;48.120;-1.456;2022-08-14T13:49:08;8.07;;;6.68;;
16870;SDS011;8552;48.120;-1.456;2022-08-14T13:51:37;8.32;;;7.45;;
16870;SDS011;8552;48.120;-1.456;2022-08-14T13:54:05;6.97;;;6.25;;
16870;SDS011;8552;48.120;-1.456;2022-08-14T13:56:32;5.55;;;5.07;;
16870;SDS011;8552;48.120;-1.456;2022-08-14T13:59:02;6.53;;;5.70;;
16870;SDS011;8552;48.120;-1.456;2022-08-14T14:01:28;6.35;;;5.75;;
16870;SDS011;8552;48.120;-1.456;2022-08-14T14:03:59;5.25;;;4.85;;
16870;SDS011;8552;48.120;-1.456;2022-08-14T14:06:26;5.82;;;5.22;;
16870;SDS011;8552;48.120;-1.456;2022-08-14T14:08:54;6.55;;;5.70;;
16870;SDS011;8552;48.120;-1.456;2022-08-14T14:11:21;6.43;;;5.30;;
16870;SDS011;8552;48.120;-1.456;2022-08-14T14:13:50;5.65;;;4.90;;
16870;SDS011;8552;48.120;-1.456;2022-08-14T14:16:18;5.85;;;5.25;;
16870;SDS011;8552;48.120;-1.456;2022-08-14T14:18:45;5.70;;;5.05;;
16870;SDS011;8552;48.120;-1.456;2022-08-14T14:21:15;6.38;;;5.70;;
16870;SDS011;8552;48.120;-1.456;2022-08-14T14:23:43;4.97;;;4.30;;
16870;SDS011;8552;48.120;-1.456;2022-08-14T14:26:13;5.00;;;4.57;;
16870;SDS011;8552;48.120;-1.456;2022-08-14T14:28:43;6.20;;;5.53;;
16870;SDS011;8552;48.120;-1.456;2022-08-14T14:31:22;6.78;;;6.13;;
16870;SDS011;8552;48.120;-1.456;2022-08-14T14:33:55;6.65;;;5.13;;
16870;SDS011;8552;48.120;-1.456;2022-08-14T14:36:23;6.25;;;4.32;;
16870;SDS011;8552;48.120;-1.456;2022-08-14T14:38:54;4.90;;;4.28;;
16870;SDS011;8552;48.120;-1.456;2022-08-14T14:41:23;4.05;;;3.75;;
16870;SDS011;8552;48.120;-1.456;2022-08-14T14:43:52;4.32;;;3.90;;
16870;SDS011;8552;48.120;-1.456;2022-08-14T14:46:19;5.47;;;4.10;;
16870;SDS011;8552;48.120;-1.456;2022-08-14T14:48:46;4.20;;;3.90;;
16870;SDS011;8552;48.120;-1.456;2022-08-14T14:51:13;4.38;;;3.97;;
16870;SDS011;8552;48.120;-1.456;2022-08-14T14:53:40;3.63;;;3.30;;
16870;SDS011;8552;48.120;-1.456;2022-08-14T14:56:08;4.00;;;3.60;;
16870;SDS011;8552;48.120;-1.456;2022-08-14T14:58:37;3.53;;;3.33;;
16870;SDS011;8552;48.120;-1.456;2022-08-14T15:01:06;3.90;;;3.60;;
16870;SDS011;8552;48.120;-1.456;2022-08-14T15:03:34;4.18;;;3.78;;
16870;SDS011;8552;48.120;-1.456;2022-08-14T15:06:03;4.22;;;3.83;;